createdAt,value
2023-07-01T00:01:17.257Z,65.43
2023-07-01T00:03:45.117Z,65.86
2023-07-01T00:06:13.266Z,65.99
2023-07-01T00:08:41.307Z,65.83
2023-07-01T00:11:09.406Z,66.30
2023-07-01T00:13:37.176Z,66.13
2023-07-01T00:16:06.738Z,66.27
2023-07-01T00:18:34.538Z,66.68
2023-07-01T00:21:02.329Z,66.94
2023-07-01T00:23:30.146Z,66.48
2023-07-01T00:25:57.884Z,66.70
2023-07-01T00:28:25.730Z,67.11
2023-07-01T00:30:53.724Z,67.18
2023-07-01T00:33:24.222Z,67.07
2023-07-01T00:35:52.021Z,67.13
2023-07-01T00:38:19.964Z,67.76
2023-07-01T00:40:48.057Z,67.30
2023-07-01T00:43:16.310Z,67.37
2023-07-01T00:45:48.305Z,67.31
2023-07-01T00:48:26.581Z,67.70
2023-07-01T00:50:56.178Z,66.90
2023-07-01T00:53:24.551Z,67.12
2023-07-01T00:55:53.654Z,67.00
2023-07-01T00:58:22.100Z,66.99
2023-07-01T01:00:49.982Z,66.69
2023-07-01T01:03:28.276Z,66.07
2023-07-01T01:06:03.521Z,66.09
2023-07-01T01:08:41.389Z,65.67
2023-07-01T01:11:11.130Z,65.61
2023-07-01T01:13:39.990Z,65.20
2023-07-01T01:16:07.840Z,64.86
2023-07-01T01:18:36.528Z,64.89
2023-07-01T01:21:08.033Z,64.67
2023-07-01T01:23:44.464Z,65.09
2023-07-01T01:26:19.241Z,64.66
2023-07-01T01:28:48.713Z,64.29
2023-07-01T01:31:16.578Z,64.23
2023-07-01T01:33:44.349Z,64.28
2023-07-01T01:36:16.912Z,64.17
2023-07-01T01:38:45.517Z,63.83
2023-07-01T01:41:18.182Z,63.50
2023-07-01T01:43:54.324Z,63.22
2023-07-01T01:46:24.297Z,63.22
2023-07-01T01:48:53.408Z,62.78
2023-07-01T01:51:23.789Z,63.03
2023-07-01T01:53:54.271Z,63.03
2023-07-01T01:56:22.993Z,62.81
2023-07-01T01:58:52.201Z,62.41
2023-07-01T02:01:20.069Z,62.55
2023-07-01T02:03:48.020Z,62.35
2023-07-01T02:06:16.054Z,62.36
2023-07-01T02:08:43.818Z,62.26
2023-07-01T02:11:11.646Z,62.21
2023-07-01T02:13:39.439Z,61.96
2023-07-01T02:16:08.792Z,62.06
2023-07-01T02:18:36.553Z,61.93
2023-07-01T02:21:05.323Z,62.07
2023-07-01T02:23:33.114Z,61.71
2023-07-01T02:26:00.994Z,61.82
2023-07-01T02:28:28.739Z,61.61
2023-07-01T02:30:56.519Z,61.90
2023-07-01T02:33:25.892Z,61.73
2023-07-01T02:35:53.808Z,61.95
2023-07-01T02:38:21.601Z,61.89
2023-07-01T02:40:49.725Z,61.54
2023-07-01T02:43:17.532Z,61.45
2023-07-01T02:45:45.423Z,61.67
2023-07-01T02:48:13.220Z,61.52
2023-07-01T02:50:42.818Z,61.43
2023-07-01T02:53:10.761Z,61.51
2023-07-01T02:55:39.021Z,61.20
2023-07-01T02:58:06.783Z,61.30
2023-07-01T03:00:34.735Z,61.17
2023-07-01T03:03:07.534Z,60.80
2023-07-01T03:05:36.334Z,61.20
2023-07-01T03:08:06.570Z,60.65
2023-07-01T03:10:35.981Z,60.78
2023-07-01T03:13:03.990Z,61.00
2023-07-01T03:15:32.043Z,60.86
2023-07-01T03:17:59.849Z,60.71
2023-07-01T03:20:27.945Z,61.04
2023-07-01T03:22:57.715Z,60.66
2023-07-01T03:25:27.426Z,60.64
2023-07-01T03:27:55.587Z,60.57
2023-07-01T03:30:32.375Z,60.58
2023-07-01T03:33:00.957Z,60.46
2023-07-01T03:35:28.828Z,60.44
2023-07-01T03:37:56.608Z,60.28
2023-07-01T03:40:24.401Z,60.28
2023-07-01T03:42:53.617Z,59.86
2023-07-01T03:45:21.462Z,59.89
2023-07-01T03:47:49.352Z,60.00
2023-07-01T03:50:17.898Z,59.75
2023-07-01T03:52:45.802Z,59.72
2023-07-01T03:55:15.226Z,59.52
2023-07-01T03:57:43.441Z,59.64
2023-07-01T04:00:19.379Z,59.93
2023-07-01T04:02:48.699Z,59.35
2023-07-01T04:05:17.770Z,58.91
2023-07-01T04:07:48.620Z,58.93
2023-07-01T04:10:16.702Z,59.06
2023-07-01T04:12:44.753Z,58.98
2023-07-01T04:15:14.091Z,58.70
2023-07-01T04:17:43.703Z,58.14
2023-07-01T04:20:14.608Z,58.53
2023-07-01T04:22:43.450Z,58.35
2023-07-01T04:25:11.775Z,58.30
2023-07-01T04:27:39.832Z,57.93
2023-07-01T04:30:09.661Z,58.12
2023-07-01T04:32:38.996Z,57.73
2023-07-01T04:35:08.294Z,57.92
2023-07-01T04:37:36.243Z,57.42
2023-07-01T04:40:05.462Z,57.24
2023-07-01T04:42:34.225Z,56.77
2023-07-01T04:45:02.258Z,56.79
2023-07-01T04:47:31.834Z,56.65
2023-07-01T04:50:00.962Z,56.34
2023-07-01T04:52:28.784Z,56.47
2023-07-01T04:54:56.504Z,56.00
2023-07-01T04:57:26.398Z,55.74
2023-07-01T04:59:54.170Z,55.52
2023-07-01T05:02:22.038Z,55.10
2023-07-01T05:04:49.899Z,54.48
2023-07-01T05:07:19.197Z,54.80
2023-07-01T05:09:47.017Z,54.74
2023-07-01T05:12:15.524Z,55.08
2023-07-01T05:14:43.268Z,55.14
2023-07-01T05:17:11.017Z,54.85
2023-07-01T05:19:38.801Z,54.80
2023-07-01T05:22:07.658Z,54.64
2023-07-01T05:24:36.813Z,54.47
2023-07-01T05:27:06.085Z,54.25
2023-07-01T05:29:33.924Z,54.15
2023-07-01T05:32:01.793Z,53.95
2023-07-01T05:34:29.579Z,53.74
2023-07-01T05:36:57.480Z,53.78
2023-07-01T05:39:26.055Z,53.55
2023-07-01T05:41:55.137Z,53.33
2023-07-01T05:44:25.511Z,53.61
2023-07-01T05:46:53.653Z,53.56
2023-07-01T05:49:21.396Z,53.58
2023-07-01T05:51:49.230Z,53.39
2023-07-01T05:54:17.210Z,53.30
2023-07-01T05:56:45.122Z,53.48
2023-07-01T05:59:14.765Z,53.08
2023-07-01T06:01:42.729Z,53.06
2023-07-01T06:04:10.725Z,53.41
2023-07-01T06:06:39.953Z,53.56
2023-07-01T06:09:09.361Z,53.27
2023-07-01T06:11:37.212Z,53.04
2023-07-01T06:14:05.106Z,52.55
2023-07-01T06:16:34.348Z,52.07
2023-07-01T06:19:03.463Z,50.69
2023-07-01T06:21:31.194Z,51.22
2023-07-01T06:23:59.131Z,51.15
2023-07-01T06:26:27.114Z,51.39
2023-07-01T06:28:54.848Z,51.35
2023-07-01T06:31:22.922Z,51.52
2023-07-01T06:33:52.111Z,51.06
2023-07-01T06:36:19.882Z,51.06
2023-07-01T06:38:50.092Z,50.94
2023-07-01T06:41:17.921Z,50.80
2023-07-01T06:43:45.959Z,50.39
2023-07-01T06:46:13.771Z,50.92
2023-07-01T06:48:44.177Z,50.55
2023-07-01T06:51:14.181Z,50.22
2023-07-01T06:53:42.206Z,49.68
2023-07-01T06:56:11.133Z,49.41
2023-07-01T06:58:41.133Z,48.94
2023-07-01T07:01:09.132Z,48.61
2023-07-01T07:03:40.670Z,48.13
2023-07-01T07:06:08.976Z,47.43
2023-07-01T07:08:39.010Z,47.20
2023-07-01T07:11:06.833Z,47.15
2023-07-01T07:13:34.663Z,47.06
2023-07-01T07:16:02.667Z,47.54
2023-07-01T07:18:31.298Z,46.46
2023-07-01T07:20:59.201Z,46.79
2023-07-01T07:23:27.062Z,47.02
2023-07-01T07:25:58.826Z,46.09
2023-07-01T07:28:26.562Z,47.41
2023-07-01T07:30:54.317Z,47.72
2023-07-01T07:33:22.189Z,48.05
2023-07-01T07:35:50.147Z,48.59
2023-07-01T07:38:18.203Z,48.24
2023-07-01T07:40:46.344Z,48.47
2023-07-01T07:43:15.780Z,48.42
2023-07-01T07:45:43.662Z,48.34
2023-07-01T07:48:11.545Z,48.44
2023-07-01T07:50:39.442Z,48.49
2023-07-01T07:53:07.500Z,48.41
2023-07-01T07:55:35.876Z,47.83
2023-07-01T07:58:04.564Z,47.84
2023-07-01T08:00:34.195Z,47.57
2023-07-01T08:03:02.198Z,47.65
2023-07-01T08:05:30.096Z,47.62
2023-07-01T08:07:58.075Z,47.80
2023-07-01T08:10:25.996Z,47.86
2023-07-01T08:12:53.809Z,47.77
2023-07-01T08:15:23.032Z,47.28
2023-07-01T08:17:52.143Z,47.10
2023-07-01T08:20:20.098Z,46.61
2023-07-01T08:22:47.977Z,46.49
2023-07-01T08:25:15.728Z,46.68
2023-07-01T08:27:43.556Z,46.81
2023-07-01T08:30:12.758Z,46.99
2023-07-01T08:32:41.371Z,47.27
2023-07-01T08:35:11.109Z,48.20
2023-07-01T08:37:38.976Z,48.65
2023-07-01T08:40:08.204Z,49.15
2023-07-01T08:42:44.051Z,49.79
2023-07-01T08:45:12.874Z,51.45
2023-07-01T08:47:42.513Z,53.12
2023-07-01T08:50:18.160Z,56.20
2023-07-01T08:52:48.960Z,55.20
2023-07-01T08:55:16.990Z,56.71
2023-07-01T08:57:44.761Z,58.66
2023-07-01T09:00:14.427Z,59.83
2023-07-01T09:02:43.094Z,58.79
2023-07-01T09:05:12.451Z,59.41
2023-07-01T09:07:42.615Z,59.04
2023-07-01T09:10:13.354Z,59.99
2023-07-01T09:12:41.153Z,59.80
2023-07-01T09:15:10.116Z,59.54
2023-07-01T09:17:39.545Z,59.87
2023-07-01T09:20:09.490Z,59.47
2023-07-01T09:22:40.243Z,59.75
2023-07-01T09:25:08.924Z,59.44
2023-07-01T09:27:46.094Z,60.23
2023-07-01T09:30:26.783Z,58.85
2023-07-01T09:33:11.199Z,58.95
2023-07-01T09:35:43.702Z,57.52
2023-07-01T09:38:13.024Z,56.63
2023-07-01T09:40:41.044Z,56.32
2023-07-01T09:43:09.245Z,55.57
2023-07-01T09:45:37.154Z,55.50
2023-07-01T09:48:12.536Z,54.21
2023-07-01T09:50:42.221Z,53.88
2023-07-01T09:53:21.841Z,53.35
2023-07-01T09:55:50.078Z,54.22
2023-07-01T09:58:18.708Z,52.88
2023-07-01T10:00:46.865Z,52.91
2023-07-01T10:03:14.708Z,52.58
2023-07-01T10:05:46.307Z,52.63
2023-07-01T10:08:14.347Z,52.66
2023-07-01T10:10:44.409Z,52.46
2023-07-01T10:13:14.285Z,51.96
2023-07-01T10:15:43.288Z,52.31
2023-07-01T10:18:22.997Z,54.16
2023-07-01T10:20:52.007Z,54.12
2023-07-01T10:23:20.551Z,53.79
2023-07-01T10:25:50.028Z,53.21
2023-07-01T10:28:17.984Z,53.49
2023-07-01T10:31:11.928Z,52.58
2023-07-01T10:33:59.198Z,52.77
2023-07-01T10:36:27.169Z,53.44
2023-07-01T10:39:34.243Z,52.37
2023-07-01T10:42:03.591Z,52.29
2023-07-01T10:44:31.792Z,52.92
2023-07-01T10:47:20.842Z,52.13
2023-07-01T10:50:08.619Z,51.87
2023-07-01T10:53:12.177Z,51.73
2023-07-01T10:55:45.660Z,51.17
2023-07-01T10:58:22.461Z,50.59
2023-07-01T11:00:50.988Z,51.37
2023-07-01T11:03:56.686Z,50.96
2023-07-01T11:06:24.690Z,50.81
2023-07-01T11:08:53.949Z,50.87
2023-07-01T11:11:23.622Z,49.71
2023-07-01T11:14:04.912Z,50.83
2023-07-01T11:16:34.311Z,51.49
2023-07-01T11:19:04.455Z,51.77
2023-07-01T11:21:33.190Z,53.29
2023-07-01T11:24:03.479Z,53.46
2023-07-01T11:26:33.046Z,54.46
2023-07-01T11:29:02.751Z,54.32
2023-07-01T11:31:34.721Z,55.60
2023-07-01T11:34:04.038Z,55.99
2023-07-01T11:36:37.195Z,55.89
2023-07-01T11:39:07.106Z,56.00
2023-07-01T11:41:36.150Z,56.28
2023-07-01T11:44:07.417Z,56.07
2023-07-01T11:46:37.116Z,56.12
2023-07-01T11:49:15.989Z,58.11
2023-07-01T11:51:45.509Z,57.21
2023-07-01T11:54:14.911Z,58.46
2023-07-01T11:56:43.927Z,59.21
2023-07-01T11:59:29.210Z,59.83
2023-07-01T12:01:57.195Z,61.86
2023-07-01T12:04:25.609Z,62.28
2023-07-01T12:07:07.583Z,64.69
2023-07-01T12:09:35.709Z,63.77
2023-07-01T12:12:03.757Z,64.78
2023-07-01T12:14:32.964Z,65.74
2023-07-01T12:17:00.902Z,67.21
2023-07-01T12:19:28.845Z,67.54
2023-07-01T12:21:57.808Z,68.30
2023-07-01T12:24:27.202Z,68.35
2023-07-01T12:26:56.659Z,68.53
2023-07-01T12:29:26.589Z,68.43
2023-07-01T12:31:56.094Z,69.39
2023-07-01T12:34:24.253Z,68.64
2023-07-01T12:36:52.473Z,68.63
2023-07-01T12:39:20.731Z,69.01
2023-07-01T12:41:49.389Z,69.19
2023-07-01T12:44:17.220Z,69.20
2023-07-01T12:46:45.745Z,68.53
2023-07-01T12:49:15.867Z,68.99
2023-07-01T12:51:44.404Z,68.37
2023-07-01T12:54:17.723Z,66.79
2023-07-01T12:56:47.380Z,65.71
2023-07-01T12:59:15.375Z,65.08
2023-07-01T13:01:45.710Z,65.62
2023-07-01T13:04:18.125Z,65.92
2023-07-01T13:06:46.404Z,65.12
2023-07-01T13:09:14.604Z,66.35
2023-07-01T13:11:42.646Z,67.79
2023-07-01T13:14:12.651Z,68.21
2023-07-01T13:16:42.413Z,69.78
2023-07-01T13:19:12.447Z,69.28
2023-07-01T13:21:43.506Z,69.86
2023-07-01T13:24:14.902Z,69.56
2023-07-01T13:26:44.140Z,69.95
2023-07-01T13:29:14.430Z,70.23
2023-07-01T13:31:43.162Z,70.21
2023-07-01T13:34:11.419Z,70.22
2023-07-01T13:36:44.065Z,71.17
2023-07-01T13:39:14.993Z,71.47
2023-07-01T13:41:42.850Z,71.78
2023-07-01T13:44:20.695Z,72.67
2023-07-01T13:46:49.293Z,72.28
2023-07-01T13:49:23.760Z,73.17
2023-07-01T13:51:53.962Z,73.53
2023-07-01T13:54:23.965Z,73.53
2023-07-01T13:56:52.069Z,74.04
2023-07-01T13:59:21.924Z,74.43
2023-07-01T14:02:00.260Z,75.79
2023-07-01T14:04:31.822Z,74.73
2023-07-01T14:07:01.854Z,75.01
2023-07-01T14:09:31.664Z,75.14
2023-07-01T14:11:59.996Z,75.07
2023-07-01T14:14:28.807Z,74.98
2023-07-01T14:16:57.425Z,76.97
2023-07-01T14:19:25.312Z,76.81
2023-07-01T14:21:56.028Z,76.97
2023-07-01T14:24:30.520Z,77.42
2023-07-01T14:27:03.548Z,77.58
2023-07-01T14:29:31.610Z,78.02
2023-07-01T14:31:59.467Z,78.81
2023-07-01T14:34:33.158Z,79.15
2023-07-01T14:37:03.501Z,79.94
2023-07-01T14:39:45.039Z,79.72
2023-07-01T14:42:14.347Z,79.39
2023-07-01T14:44:42.318Z,80.53
2023-07-01T14:47:10.530Z,80.12
2023-07-01T14:49:39.911Z,80.32
2023-07-01T14:52:09.012Z,79.37
2023-07-01T14:54:37.022Z,80.16
2023-07-01T14:57:07.270Z,79.55
2023-07-01T14:59:35.142Z,80.01
2023-07-01T15:02:02.980Z,79.60
2023-07-01T15:04:30.715Z,79.75
2023-07-01T15:06:58.626Z,79.49
2023-07-01T15:09:26.464Z,79.61
2023-07-01T15:11:54.188Z,79.23
2023-07-01T15:14:23.301Z,78.89
2023-07-01T15:16:51.054Z,77.73
2023-07-01T15:19:18.978Z,77.71
2023-07-01T15:21:46.685Z,77.10
2023-07-01T15:24:16.338Z,76.14
2023-07-01T15:26:44.119Z,76.83
2023-07-01T15:29:11.819Z,76.97
2023-07-01T15:31:41.251Z,77.48
2023-07-01T15:34:09.095Z,77.75
2023-07-01T15:36:37.341Z,77.41
2023-07-01T15:39:05.462Z,77.26
2023-07-01T15:41:46.313Z,77.31
2023-07-01T15:44:16.195Z,77.09
2023-07-01T15:46:45.424Z,76.57
2023-07-01T15:49:13.293Z,76.14
2023-07-01T15:51:41.387Z,75.41
2023-07-01T15:54:11.421Z,75.37
2023-07-01T15:56:39.459Z,73.54
2023-07-01T15:59:07.228Z,72.49
2023-07-01T16:01:36.960Z,73.10
2023-07-01T16:04:07.300Z,73.26
2023-07-01T16:06:35.532Z,72.96
2023-07-01T16:09:25.236Z,71.39
2023-07-01T16:11:52.988Z,71.38
2023-07-01T16:14:20.721Z,71.72
2023-07-01T16:16:49.977Z,71.98
2023-07-01T16:19:19.721Z,71.45
2023-07-01T16:21:48.085Z,71.31
2023-07-01T16:24:49.302Z,71.66
2023-07-01T16:27:18.753Z,71.82
2023-07-01T16:29:46.496Z,71.58
2023-07-01T16:32:20.184Z,72.10
2023-07-01T16:34:49.914Z,72.43
2023-07-01T16:37:17.820Z,72.36
2023-07-01T16:39:52.427Z,72.45
2023-07-01T16:42:21.715Z,72.81
2023-07-01T16:44:52.897Z,73.28
2023-07-01T16:47:21.470Z,73.47
2023-07-01T16:49:52.525Z,74.96
2023-07-01T16:52:27.674Z,75.94
2023-07-01T16:54:55.915Z,77.52
2023-07-01T16:57:24.514Z,77.67
2023-07-01T16:59:52.655Z,78.05
2023-07-01T17:03:12.508Z,79.59
2023-07-01T17:05:41.782Z,79.81
2023-07-01T17:08:21.518Z,80.55
2023-07-01T17:10:50.461Z,79.79
2023-07-01T17:13:40.273Z,81.24
2023-07-01T17:16:09.155Z,80.20
2023-07-01T17:18:37.718Z,80.83
2023-07-01T17:21:06.907Z,80.45
2023-07-01T17:23:34.619Z,80.77
2023-07-01T17:26:02.337Z,80.69
2023-07-01T17:28:31.017Z,80.49
2023-07-01T17:30:59.112Z,81.04
2023-07-01T17:33:26.936Z,80.85
2023-07-01T17:35:54.691Z,82.24
2023-07-01T17:38:23.788Z,82.26
2023-07-01T17:40:51.617Z,81.78
2023-07-01T17:43:19.324Z,81.67
2023-07-01T17:45:47.264Z,81.41
2023-07-01T17:48:15.231Z,81.68
2023-07-01T17:50:42.947Z,82.37
2023-07-01T17:53:11.450Z,82.47
2023-07-01T17:55:40.718Z,82.48
2023-07-01T17:58:08.459Z,82.92
2023-07-01T18:00:36.256Z,82.99
2023-07-01T18:03:04.362Z,83.48
2023-07-01T18:05:33.378Z,83.67
2023-07-01T18:08:01.290Z,83.71
2023-07-01T18:10:29.495Z,83.50
2023-07-01T18:12:58.707Z,84.32
2023-07-01T18:15:26.501Z,84.42
2023-07-01T18:17:54.381Z,84.76
2023-07-01T18:20:22.216Z,84.35
2023-07-01T18:22:50.013Z,84.79
2023-07-01T18:25:17.793Z,84.35
2023-07-01T18:27:45.520Z,84.49
2023-07-01T18:30:15.633Z,84.03
2023-07-01T18:32:45.423Z,84.51
2023-07-01T18:35:15.554Z,83.06
2023-07-01T18:37:46.415Z,82.76
2023-07-01T18:40:15.956Z,82.40
2023-07-01T18:42:44.254Z,82.50
2023-07-01T18:45:14.101Z,82.68
2023-07-01T18:47:43.275Z,82.81
2023-07-01T18:50:12.305Z,82.81
2023-07-01T18:52:40.071Z,82.48
2023-07-01T18:55:08.507Z,82.08
2023-07-01T18:57:36.223Z,82.05
2023-07-01T19:00:04.809Z,82.52
2023-07-01T19:02:34.422Z,82.80
2023-07-01T19:05:04.313Z,83.20
2023-07-01T19:07:32.078Z,83.56
2023-07-01T19:09:59.836Z,83.48
2023-07-01T19:12:28.880Z,83.32
2023-07-01T19:14:56.679Z,83.65
2023-07-01T19:17:24.628Z,84.39
2023-07-01T19:19:54.549Z,84.30
2023-07-01T19:22:24.601Z,84.68
2023-07-01T19:24:52.916Z,85.44
2023-07-01T19:27:22.057Z,85.66
2023-07-01T19:30:03.158Z,86.12
2023-07-01T19:32:39.314Z,86.80
2023-07-01T19:35:09.709Z,87.49
2023-07-01T19:37:37.519Z,88.05
2023-07-01T19:40:05.968Z,89.12
2023-07-01T19:42:34.027Z,88.79
2023-07-01T19:45:01.891Z,89.03
2023-07-01T19:47:29.741Z,89.79
2023-07-01T19:49:57.497Z,89.74
2023-07-01T19:52:27.033Z,90.33
2023-07-01T19:54:54.795Z,89.97
2023-07-01T19:57:22.565Z,90.53
2023-07-01T19:59:50.293Z,90.67
2023-07-01T20:02:18.168Z,90.35
2023-07-01T20:04:46.038Z,90.73
2023-07-01T20:07:14.160Z,90.83
2023-07-01T20:09:44.848Z,91.04
2023-07-01T20:12:13.804Z,90.96
2023-07-01T20:14:41.796Z,90.79
2023-07-01T20:17:10.202Z,90.56
2023-07-01T20:19:37.968Z,90.92
2023-07-01T20:22:05.891Z,90.82
2023-07-01T20:24:33.692Z,90.83
2023-07-01T20:27:02.868Z,90.76
2023-07-01T20:29:30.852Z,90.90
2023-07-01T20:32:00.641Z,90.94
2023-07-01T20:34:28.671Z,90.54
2023-07-01T20:36:56.508Z,90.62
2023-07-01T20:39:24.238Z,91.08
2023-07-01T20:42:06.979Z,91.09
2023-07-01T20:44:38.365Z,90.87
2023-07-01T20:47:07.716Z,91.29
2023-07-01T20:49:36.354Z,91.31
2023-07-01T20:52:04.798Z,91.33
2023-07-01T20:54:32.899Z,91.03
2023-07-01T20:57:00.998Z,91.78
2023-07-01T20:59:31.728Z,91.39
2023-07-01T21:02:01.958Z,91.30
2023-07-01T21:04:30.780Z,91.70
2023-07-01T21:06:58.844Z,91.80
2023-07-01T21:09:27.238Z,91.71
2023-07-01T21:11:55.093Z,91.88
2023-07-01T21:14:23.474Z,92.05
2023-07-01T21:16:52.480Z,92.13
2023-07-01T21:19:21.882Z,92.25
2023-07-01T21:21:51.836Z,92.29
2023-07-01T21:24:20.028Z,92.31
2023-07-01T21:26:48.071Z,92.52
2023-07-01T21:29:17.598Z,92.47
2023-07-01T21:31:49.110Z,92.39
2023-07-01T21:34:18.990Z,92.72
2023-07-01T21:36:50.714Z,92.66
2023-07-01T21:39:20.416Z,93.09
2023-07-01T21:41:48.537Z,92.75
2023-07-01T21:44:18.148Z,93.07
2023-07-01T21:46:46.346Z,93.23
2023-07-01T21:49:14.360Z,93.41
2023-07-01T21:51:44.929Z,93.56
2023-07-01T21:54:15.895Z,93.43
2023-07-01T21:56:44.334Z,93.65
2023-07-01T21:59:12.204Z,93.67
2023-07-01T22:01:43.285Z,93.74
2023-07-01T22:04:14.556Z,93.74
2023-07-01T22:06:44.059Z,94.11
2023-07-01T22:09:12.333Z,93.86
2023-07-01T22:11:41.476Z,93.97
2023-07-01T22:14:09.871Z,93.96
2023-07-01T22:16:38.005Z,93.98
2023-07-01T22:19:06.231Z,93.75
2023-07-01T22:21:35.488Z,93.70
2023-07-01T22:24:05.422Z,93.41
2023-07-01T22:26:33.697Z,93.65
2023-07-01T22:29:03.714Z,93.08
2023-07-01T22:31:31.912Z,92.73
2023-07-01T22:33:59.942Z,92.42
2023-07-01T22:36:27.761Z,92.52
2023-07-01T22:38:56.523Z,92.21
2023-07-01T22:41:24.966Z,91.95
2023-07-01T22:43:53.153Z,91.82
2023-07-01T22:46:22.408Z,91.84
2023-07-01T22:48:50.220Z,91.78
2023-07-01T22:51:18.650Z,91.73
2023-07-01T22:53:47.661Z,91.54
2023-07-01T22:56:15.486Z,90.97
2023-07-01T22:58:43.556Z,91.08
2023-07-01T23:01:11.299Z,90.11
2023-07-01T23:03:40.952Z,90.03
2023-07-01T23:06:09.189Z,89.81
2023-07-01T23:08:39.355Z,88.78
2023-07-01T23:11:07.220Z,88.29
2023-07-01T23:13:35.498Z,88.19
2023-07-01T23:16:03.316Z,88.15
2023-07-01T23:18:31.116Z,88.40
2023-07-01T23:21:00.287Z,88.30
2023-07-01T23:23:28.099Z,88.76
2023-07-01T23:25:55.850Z,88.36
2023-07-01T23:28:23.666Z,88.00
2023-07-01T23:30:53.291Z,87.94
2023-07-01T23:33:21.887Z,87.72
2023-07-01T23:35:49.854Z,87.99
2023-07-01T23:38:18.951Z,87.93
2023-07-01T23:40:47.109Z,88.30
2023-07-01T23:43:15.513Z,88.69
2023-07-01T23:45:43.289Z,88.96
2023-07-01T23:48:11.080Z,89.50
2023-07-01T23:50:38.901Z,89.68
2023-07-01T23:53:06.911Z,89.78
2023-07-01T23:55:36.043Z,89.82
2023-07-01T23:58:03.886Z,90.09
